Time;durP1;ratioP1;P1;durP2;ratioP2;P2;SDS_P1;SDS_P2;PMS_P1;PMS_P2;Temp;Humidity;BMP_temperature;BMP_pressure;BME280_temperature;BME280_humidity;BME280_pressure;Samples;Min_cycle;Max_cycle;Signal;HPM_P1;HPM_P2
2022/03/11 00:01:47;;;;;;;211.07;171.48;;;;;;;14.77;24.96;93921.66;5060149;28;20036;-62
2022/03/11 00:04:13;;;;;;;217.45;177.20;;;;;;;14.77;25.02;93920.88;5049639;28;20045;-61
2022/03/11 00:06:38;;;;;;;219.23;180.88;;;;;;;14.75;25.18;93923.25;5052981;28;20041;-61
2022/03/11 00:09:03;;;;;;;210.30;173.38;;;;;;;14.76;25.22;93928.22;5059717;28;20632;-61
2022/03/11 00:11:30;;;;;;;218.63;178.95;;;;;;;14.77;25.05;93924.34;5033873;28;20064;-62
2022/03/11 00:13:56;;;;;;;208.02;172.40;;;;;;;14.75;25.14;93926.72;5046898;28;20528;-61
2022/03/11 00:16:22;;;;;;;213.18;175.88;;;;;;;14.75;25.16;93929.41;5060892;28;20036;-61
2022/03/11 00:18:48;;;;;;;211.18;170.00;;;;;;;14.76;25.13;93932.84;5055326;28;20124;-61
2022/03/11 00:21:14;;;;;;;216.40;177.15;;;;;;;14.76;25.10;93922.06;5049774;28;20110;-61
2022/03/11 00:23:42;;;;;;;214.85;177.27;;;;;;;14.76;25.07;93922.06;5054447;28;20171;-61
2022/03/11 00:26:11;;;;;;;214.65;177.30;;;;;;;14.72;25.31;93914.13;5044668;28;20041;-61
2022/03/11 00:28:37;;;;;;;213.77;176.18;;;;;;;14.72;25.05;93924.88;5056413;28;20178;-61
2022/03/11 00:31:05;;;;;;;214.05;176.07;;;;;;;14.71;25.17;93917.25;5053432;28;20665;-61
2022/03/11 00:33:31;;;;;;;220.38;179.25;;;;;;;14.73;25.00;93922.94;5056599;28;20060;-62
2022/03/11 00:35:57;;;;;;;216.27;177.25;;;;;;;14.71;25.25;93917.25;5054089;28;20040;-60
2022/03/11 00:38:23;;;;;;;216.27;176.38;;;;;;;14.72;25.05;93914.13;5059811;28;20048;-61
2022/03/11 00:40:51;;;;;;;233.15;186.57;;;;;;;14.73;25.14;93909.47;5057792;28;20063;-61
2022/03/11 01:01:40;;;;;;;214.48;168.60;;;;;;;14.67;25.36;93890.44;5057306;28;20841;-61
2022/03/11 01:04:24;;;;;;;215.68;173.88;;;;;;;14.67;25.13;93890.44;5051924;28;20051;-61
2022/03/11 01:06:50;;;;;;;212.43;170.90;;;;;;;14.66;25.14;93894.31;5059666;28;20052;-61
2022/03/11 01:09:15;;;;;;;214.00;173.10;;;;;;;14.66;25.19;93896.25;5061858;28;20071;-62
2022/03/11 01:11:41;;;;;;;214.93;172.88;;;;;;;14.65;25.00;93892.81;5041885;28;20501;-62
2022/03/11 01:14:07;;;;;;;213.68;173.00;;;;;;;14.65;25.17;93894.75;5059845;28;20470;-61
2022/03/11 01:16:32;;;;;;;216.90;174.48;;;;;;;14.65;25.10;93894.75;5052839;28;20060;-61
2022/03/11 01:18:58;;;;;;;216.75;176.32;;;;;;;14.64;25.09;93896.69;5046302;28;20531;-61
2022/03/11 01:21:24;;;;;;;222.68;181.25;;;;;;;14.64;25.14;93891.31;5053347;28;20047;-61
2022/03/11 01:23:49;;;;;;;213.95;175.73;;;;;;;14.67;25.19;93889.69;5055218;28;20056;-61
2022/03/11 01:26:16;;;;;;;216.23;177.75;;;;;;;14.68;25.09;93893.88;5051710;28;20127;-62
2022/03/11 01:28:42;;;;;;;217.18;175.60;;;;;;;14.67;25.25;93889.69;5054195;28;20385;-61
2022/03/11 01:31:11;;;;;;;211.98;170.27;;;;;;;14.66;25.17;93891.63;5054160;28;20048;-62
2022/03/11 01:33:41;;;;;;;215.02;175.18;;;;;;;14.68;25.18;93893.88;5064284;28;20048;-61
2022/03/11 01:36:08;;;;;;;219.20;175.30;;;;;;;14.65;25.04;93887.44;5054298;28;20500;-62
2022/03/11 01:38:33;;;;;;;216.02;174.20;;;;;;;14.64;25.21;93879.78;5048783;28;20124;-61
2022/03/11 01:40:59;;;;;;;210.35;170.32;;;;;;;14.65;25.08;93884.75;5047293;28;20076;-62
2022/03/11 01:43:25;;;;;;;210.63;171.63;;;;;;;14.62;24.90;93868.72;5049090;28;20060;-62
2022/03/11 01:45:50;;;;;;;216.18;174.32;;;;;;;14.64;25.05;93874.41;5054437;28;20084;-61
2022/03/11 01:48:16;;;;;;;221.43;180.23;;;;;;;14.62;24.98;93864.06;5050822;28;20045;-60
2022/03/11 01:50:42;;;;;;;236.23;191.93;;;;;;;14.63;25.00;93865.59;5055965;28;20089;-61
2022/03/11 01:53:09;;;;;;;216.63;176.13;;;;;;;14.63;24.97;93865.59;5056661;28;20043;-61
2022/03/11 01:55:36;;;;;;;215.25;174.93;;;;;;;14.62;25.02;93866.78;5048795;28;20044;-62
2022/03/11 01:58:03;;;;;;;211.63;174.32;;;;;;;14.59;25.28;93854.19;5051380;28;20124;-61
2022/03/11 02:00:29;;;;;;;219.88;180.13;;;;;;;14.61;25.25;93851.06;5048566;28;20041;-61
2022/03/11 02:02:55;;;;;;;214.52;172.32;;;;;;;14.61;24.98;93851.06;5036573;28;20047;-61
2022/03/11 02:05:20;;;;;;;217.68;172.10;;;;;;;14.56;24.90;93844.28;5046579;28;20048;-61
2022/03/11 02:07:47;;;;;;;219.25;175.93;;;;;;;14.60;25.10;93852.25;5053051;28;20064;-61
2022/03/11 02:10:13;;;;;;;214.98;172.43;;;;;;;14.57;24.92;93845.78;5052985;28;20053;-61
2022/03/11 02:12:38;;;;;;;219.90;178.18;;;;;;;14.59;25.02;93848.81;5031900;28;21183;-62
2022/03/11 02:15:05;;;;;;;212.27;168.73;;;;;;;14.60;25.05;93858.38;5059583;28;20099;-61
2022/03/11 02:17:31;;;;;;;217.00;177.30;;;;;;;14.60;25.16;93854.94;5051052;28;20067;-61
2022/03/11 02:19:56;;;;;;;214.85;175.80;;;;;;;14.60;25.14;93853.00;5044318;28;20032;-61
2022/03/11 02:22:24;;;;;;;222.15;182.85;;;;;;;14.61;24.92;93856.44;5047743;28;20147;-60
2022/03/11 02:24:53;;;;;;;213.65;171.02;;;;;;;14.59;25.04;93854.19;5054849;28;20648;-61
2022/03/11 02:27:20;;;;;;;216.10;173.35;;;;;;;14.55;24.99;93858.19;5054980;28;20045;-61
2022/03/11 02:29:45;;;;;;;210.32;170.32;;;;;;;14.49;24.86;93847.97;5053507;28;20147;-61
2022/03/11 02:32:11;;;;;;;209.95;169.32;;;;;;;14.48;25.02;93848.41;5050332;28;20677;-61
2022/03/11 02:34:38;;;;;;;219.60;178.23;;;;;;;14.48;25.00;93843.75;5046523;28;20063;-61
2022/03/11 02:37:04;;;;;;;210.15;170.02;;;;;;;14.54;25.12;93845.91;5051491;28;20048;-62
2022/03/11 02:39:30;;;;;;;216.98;176.32;;;;;;;14.56;25.00;93843.53;5049448;28;20102;-60
2022/03/11 02:41:57;;;;;;;216.00;177.25;;;;;;;14.56;25.09;93846.22;5051625;28;20124;-61
2022/03/11 02:44:23;;;;;;;214.75;171.85;;;;;;;14.57;24.95;93851.16;5055517;28;20053;-62
2022/03/11 02:46:49;;;;;;;216.90;177.77;;;;;;;14.56;25.02;93836.22;5053102;28;20387;-62
2022/03/11 02:49:14;;;;;;;216.55;181.00;;;;;;;14.56;24.99;93832.78;5050779;28;20044;-62
2022/03/11 02:51:40;;;;;;;213.55;174.35;;;;;;;14.55;25.06;93842.03;5053322;28;20052;-61
2022/03/11 02:54:05;;;;;;;207.30;167.88;;;;;;;14.52;24.99;93830.19;5051503;28;20045;-61
2022/03/11 02:56:31;;;;;;;216.20;176.85;;;;;;;14.52;25.03;93832.88;5053053;28;20044;-61
2022/03/11 02:58:57;;;;;;;212.95;169.57;;;;;;;14.54;24.98;93827.81;5053677;28;20074;-60
2022/03/11 03:01:22;;;;;;;214.00;173.30;;;;;;;14.52;24.97;93826.75;5050066;28;20343;-60
2022/03/11 03:03:48;;;;;;;216.52;173.30;;;;;;;14.54;24.72;93825.13;5047951;28;20072;-62
2022/03/11 03:06:13;;;;;;;218.65;177.15;;;;;;;14.55;25.05;93832.00;5051098;28;20052;-61
2022/03/11 03:08:39;;;;;;;218.40;176.07;;;;;;;14.55;24.98;93825.88;5048142;28;20059;-61
2022/03/11 03:11:05;;;;;;;212.30;170.57;;;;;;;14.56;25.04;93832.78;5053909;28;20045;-61
2022/03/11 03:13:30;;;;;;;214.43;175.10;;;;;;;14.50;24.85;93836.00;5055223;28;20189;-60
2022/03/11 03:15:56;;;;;;;213.52;173.80;;;;;;;14.54;25.14;93852.03;5047425;28;20063;-62
2022/03/11 03:18:21;;;;;;;218.82;175.73;;;;;;;14.55;24.83;93839.34;5052093;28;20501;-61
2022/03/11 03:20:47;;;;;;;234.85;191.20;;;;;;;14.53;25.01;93839.78;5050822;28;20045;-61
2022/03/11 03:23:13;;;;;;;215.27;173.40;;;;;;;14.56;24.84;93846.22;5052532;28;20127;-62
2022/03/11 03:25:38;;;;;;;227.77;183.05;;;;;;;14.55;24.72;93839.34;5050175;28;20032;-62
2022/03/11 03:28:04;;;;;;;213.43;171.60;;;;;;;14.55;24.89;93834.72;5057372;28;20052;-62
2022/03/11 03:30:30;;;;;;;215.57;171.55;;;;;;;14.55;24.78;93831.25;5054441;28;20044;-61
2022/03/11 03:32:55;;;;;;;219.02;176.55;;;;;;;14.55;24.99;93834.72;5051654;28;20901;-60
2022/03/11 03:35:21;;;;;;;216.25;175.43;;;;;;;14.55;25.03;93831.25;5051649;28;20040;-61
2022/03/11 03:37:47;;;;;;;217.73;173.07;;;;;;;14.56;24.76;93835.47;5047966;28;20054;-61
2022/03/11 03:40:12;;;;;;;213.15;171.02;;;;;;;14.55;25.06;93836.66;5046193;28;20136;-62
2022/03/11 03:42:38;;;;;;;216.90;175.50;;;;;;;14.53;24.91;93833.63;5050714;28;20043;-61
2022/03/11 03:45:06;;;;;;;210.68;173.70;;;;;;;14.52;24.84;93824.81;5052616;28;20472;-61
2022/03/11 03:47:32;;;;;;;212.98;172.95;;;;;;;14.48;24.80;93814.16;5052120;28;20045;-60
2022/03/11 03:49:57;;;;;;;214.45;173.80;;;;;;;14.49;24.83;93815.66;5051921;28;20102;-61
2022/03/11 03:52:23;;;;;;;212.23;173.00;;;;;;;14.49;24.73;93815.66;5053118;28;20052;-61
2022/03/11 03:54:48;;;;;;;211.38;168.30;;;;;;;14.50;24.89;93808.34;5054428;28;20508;-61
2022/03/11 03:57:14;;;;;;;214.60;172.02;;;;;;;14.49;24.72;93804.16;5054164;28;20066;-61
2022/03/11 03:59:39;;;;;;;215.65;176.07;;;;;;;14.46;24.79;93808.47;5055511;28;20052;-61
2022/03/11 04:02:05;;;;;;;216.90;174.07;;;;;;;14.47;24.88;93809.22;5029607;28;20048;-60
2022/03/11 04:04:31;;;;;;;222.68;178.70;;;;;;;14.48;24.95;93808.03;5056595;28;20055;-61
2022/03/11 04:06:57;;;;;;;218.57;179.40;;;;;;;14.49;24.74;93809.53;5035680;28;20032;-62
2022/03/11 04:09:23;;;;;;;220.80;177.40;;;;;;;14.48;24.91;93808.03;5053210;28;20703;-61
2022/03/11 04:11:49;;;;;;;214.38;170.40;;;;;;;14.48;24.99;93808.03;5051112;28;20060;-62
2022/03/11 04:14:14;;;;;;;211.48;173.15;;;;;;;14.44;24.90;93810.84;5061725;28;20085;-61
2022/03/11 04:16:40;;;;;;;217.95;173.60;;;;;;;14.46;24.89;93808.47;5048451;28;20053;-61
2022/03/11 04:19:06;;;;;;;216.82;175.15;;;;;;;14.44;24.75;93808.16;5041483;28;20116;-62
2022/03/11 04:21:31;;;;;;;211.43;171.77;;;;;;;14.45;24.81;93806.22;5065869;28;20487;-61
2022/03/11 04:23:57;;;;;;;216.15;170.45;;;;;;;14.44;24.89;93812.78;5065429;28;20056;-62
2022/03/11 04:26:22;;;;;;;213.70;168.35;;;;;;;14.46;24.99;93813.09;5053849;28;20157;-61
2022/03/11 04:28:48;;;;;;;219.95;179.52;;;;;;;14.46;24.77;93813.09;5050621;28;20444;-62
2022/03/11 04:31:13;;;;;;;216.07;174.55;;;;;;;14.45;24.76;93806.22;5055746;28;20041;-59
2022/03/11 04:33:40;;;;;;;221.85;179.02;;;;;;;14.44;24.78;93807.41;5052906;28;20036;-60
2022/03/11 04:36:06;;;;;;;224.80;181.93;;;;;;;14.44;24.97;93800.09;5057485;28;20040;-61
2022/03/11 04:38:33;;;;;;;218.82;177.25;;;;;;;14.45;24.61;93801.59;5062451;28;20045;-62
2022/03/11 04:41:00;;;;;;;221.80;177.32;;;;;;;14.44;24.92;93802.78;5065313;28;20097;-60
2022/03/11 04:43:25;;;;;;;220.27;178.95;;;;;;;14.45;24.67;93801.59;5055743;28;20041;-61
2022/03/11 04:45:51;;;;;;;221.23;178.27;;;;;;;14.44;24.41;93802.78;5059771;28;20509;-62
2022/03/11 04:48:17;;;;;;;218.27;176.15;;;;;;;14.44;24.50;93799.31;5057027;28;20041;-61
2022/03/11 04:50:43;;;;;;;237.90;185.82;;;;;;;14.44;24.74;93802.03;5056185;28;20045;-61
2022/03/11 04:53:09;;;;;;;217.30;177.63;;;;;;;14.43;24.55;93797.81;5056856;28;20048;-60
2022/03/11 04:55:36;;;;;;;225.02;180.63;;;;;;;14.43;24.77;93803.97;5062484;28;20041;-62
2022/03/11 04:58:02;;;;;;;221.63;179.70;;;;;;;14.42;24.88;93804.38;5061212;28;20080;-61
2022/03/11 05:00:27;;;;;;;219.23;180.50;;;;;;;14.41;24.62;93805.53;5056388;28;20178;-61
2022/03/11 05:02:54;;;;;;;224.35;182.82;;;;;;;14.41;24.63;93808.25;5056062;28;20597;-61
2022/03/11 05:05:21;;;;;;;216.32;175.77;;;;;;;14.41;24.57;93802.84;5055480;28;20112;-61
2022/03/11 05:07:47;;;;;;;216.63;176.98;;;;;;;14.39;24.66;93795.22;5059686;28;20102;-62
2022/03/11 05:10:14;;;;;;;224.20;179.68;;;;;;;14.43;24.90;93803.97;5049923;28;20049;-61
2022/03/11 05:12:40;;;;;;;218.82;177.77;;;;;;;14.44;24.53;93797.38;5050869;28;20037;-62
2022/03/11 05:15:07;;;;;;;221.30;179.55;;;;;;;14.41;24.52;93792.09;5055737;28;20048;-62
2022/03/11 05:17:33;;;;;;;214.32;173.10;;;;;;;14.41;24.43;93792.88;5047915;28;20083;-64
2022/03/11 05:19:59;;;;;;;218.35;176.57;;;;;;;14.44;24.38;93794.69;5059859;28;20186;-62
2022/03/11 05:22:25;;;;;;;211.40;167.70;;;;;;;14.46;24.67;93789.63;5055352;28;20044;-63
2022/03/11 05:24:51;;;;;;;211.35;171.95;;;;;;;14.46;24.30;93783.50;5052154;28;20048;-62
2022/03/11 05:27:16;;;;;;;240.55;190.25;;;;;;;14.45;24.49;93785.44;5052740;28;20397;-62
2022/03/11 05:29:42;;;;;;;218.80;173.90;;;;;;;14.43;24.28;93781.69;5054333;28;20127;-63
2022/03/11 05:32:08;;;;;;;221.27;177.75;;;;;;;14.41;24.41;93782.13;5058259;28;20120;-62
2022/03/11 05:34:34;;;;;;;210.23;167.60;;;;;;;14.46;24.66;93786.19;5051787;28;20053;-62
2022/03/11 05:37:00;;;;;;;217.15;173.90;;;;;;;14.40;24.42;93777.16;5056740;28;20074;-63
2022/03/11 05:39:26;;;;;;;224.50;179.02;;;;;;;14.45;24.55;93779.31;5050108;28;20480;-62
2022/03/11 05:41:52;;;;;;;218.45;177.88;;;;;;;14.46;24.43;93784.25;5056571;28;20033;-62
2022/03/11 05:44:18;;;;;;;214.77;174.95;;;;;;;14.48;24.39;93789.94;5059590;28;20577;-60
2022/03/11 05:46:45;;;;;;;220.82;174.95;;;;;;;14.49;24.36;93788.00;5053486;28;20525;-61
2022/03/11 05:49:12;;;;;;;228.57;183.75;;;;;;;14.47;24.39;93788.44;5065740;28;20075;-64
2022/03/11 05:51:37;;;;;;;218.98;179.07;;;;;;;14.49;24.20;93782.63;5048631;28;20044;-63
2022/03/11 05:54:06;;;;;;;214.65;172.20;;;;;;;14.54;24.10;93784.78;5056552;28;20167;-64
2022/03/11 05:56:34;;;;;;;212.05;167.77;;;;;;;14.53;24.14;93794.03;5059929;28;20036;-63
2022/03/11 05:59:00;;;;;;;216.18;173.13;;;;;;;14.55;24.06;93794.34;5067587;28;20056;-63
2022/03/11 06:01:26;;;;;;;217.00;175.45;;;;;;;14.54;24.21;93795.53;5055611;28;20448;-62
2022/03/11 06:03:51;;;;;;;219.18;177.68;;;;;;;14.55;24.18;93797.03;5056406;28;20041;-63
2022/03/11 06:06:17;;;;;;;218.65;177.02;;;;;;;14.54;24.27;93798.22;5064063;28;20040;-61
2022/03/11 06:08:43;;;;;;;213.98;171.27;;;;;;;14.56;24.23;93800.47;5061321;28;20048;-62
2022/03/11 06:11:09;;;;;;;222.23;176.55;;;;;;;14.56;24.13;93797.78;5056045;28;20059;-60
2022/03/11 06:13:36;;;;;;;220.35;176.52;;;;;;;14.55;23.92;93793.59;5062589;28;20063;-60
2022/03/11 06:16:02;;;;;;;214.02;172.45;;;;;;;14.59;24.22;93792.28;5050392;28;20120;-60
2022/03/11 06:18:28;;;;;;;214.48;173.85;;;;;;;14.59;24.20;93794.22;5055254;28;20041;-60
2022/03/11 06:20:56;;;;;;;221.63;174.95;;;;;;;14.59;24.06;93802.28;5063618;28;20058;-59
2022/03/11 06:23:22;;;;;;;218.85;174.57;;;;;;;14.57;23.98;93802.72;5045406;28;20056;-59
2022/03/11 06:25:47;;;;;;;206.13;165.02;;;;;;;14.57;23.90;93807.38;5062796;28;20082;-60
2022/03/11 06:28:13;;;;;;;215.07;170.30;;;;;;;14.56;23.83;93812.00;5054705;28;20060;-64
2022/03/11 06:30:39;;;;;;;228.00;183.50;;;;;;;14.55;23.97;93807.03;5055164;28;20414;-61
2022/03/11 06:33:06;;;;;;;213.60;173.15;;;;;;;14.53;23.95;93807.47;5056999;28;20052;-60
2022/03/11 06:35:32;;;;;;;222.68;177.95;;;;;;;14.47;23.84;93814.59;5062952;28;20131;-61
2022/03/11 06:37:57;;;;;;;215.45;175.43;;;;;;;14.50;24.01;93819.13;5069040;28;20051;-61
2022/03/11 06:40:23;;;;;;;219.52;180.13;;;;;;;14.52;23.42;93819.44;5059834;28;20044;-61
2022/03/11 06:42:50;;;;;;;220.40;178.90;;;;;;;14.57;24.02;93826.94;5053907;28;20037;-62
2022/03/11 06:45:18;;;;;;;219.95;178.27;;;;;;;14.58;23.69;93825.00;5062639;28;20052;-60
2022/03/11 06:47:47;;;;;;;210.95;171.18;;;;;;;14.55;23.60;93825.88;5063678;28;20824;-61
2022/03/11 06:50:15;;;;;;;225.35;178.57;;;;;;;14.55;24.00;93829.31;5062143;28;20094;-61
2022/03/11 06:52:40;;;;;;;218.15;172.85;;;;;;;14.57;23.84;93828.88;5068356;28;20165;-61
2022/03/11 06:55:07;;;;;;;214.25;175.52;;;;;;;14.58;23.79;93825.00;5053374;28;20493;-60
2022/03/11 06:57:33;;;;;;;214.55;170.05;;;;;;;14.59;23.64;93826.50;5063027;28;20519;-61
2022/03/11 06:59:58;;;;;;;216.45;174.15;;;;;;;14.59;23.92;93821.13;5059580;28;20044;-61
2022/03/11 07:02:24;;;;;;;213.35;170.10;;;;;;;14.58;23.90;93819.63;5058523;28;20049;-60
2022/03/11 07:04:49;;;;;;;215.00;175.70;;;;;;;14.58;23.92;93825.00;5062307;28;20051;-62
2022/03/11 07:07:15;;;;;;;216.07;176.63;;;;;;;14.57;23.87;93835.03;5057753;28;20068;-61
2022/03/11 07:09:41;;;;;;;215.68;176.18;;;;;;;14.58;23.71;93831.16;5053829;28;20155;-60
2022/03/11 07:12:07;;;;;;;216.82;175.75;;;;;;;14.55;23.91;93829.31;5061060;28;20049;-61
2022/03/11 07:14:35;;;;;;;211.02;171.23;;;;;;;14.53;23.89;93828.25;5056692;28;20075;-61
2022/03/11 07:17:02;;;;;;;211.18;172.88;;;;;;;14.53;23.89;93825.56;5053849;28;20045;-62
2022/03/11 07:19:27;;;;;;;215.65;173.00;;;;;;;14.53;23.82;93829.00;5063267;28;20052;-61
2022/03/11 07:21:57;;;;;;;211.32;168.20;;;;;;;14.55;23.87;93839.34;5064796;28;20605;-61
2022/03/11 07:24:23;;;;;;;208.32;165.02;;;;;;;14.53;23.97;93837.06;5068028;28;20592;-61
2022/03/11 07:26:49;;;;;;;212.40;170.50;;;;;;;14.50;24.03;93840.63;5060298;28;20053;-60
2022/03/11 07:29:15;;;;;;;219.50;179.30;;;;;;;14.55;23.73;93842.03;5064983;28;20110;-61
2022/03/11 07:31:40;;;;;;;213.50;172.50;;;;;;;14.53;23.68;93842.47;5064897;28;20045;-61
2022/03/11 07:34:06;;;;;;;217.93;171.80;;;;;;;14.49;23.79;93844.53;5065966;28;20127;-60
2022/03/11 07:36:34;;;;;;;222.15;178.98;;;;;;;14.49;23.92;93842.56;5061301;28;20041;-62
2022/03/11 07:39:01;;;;;;;205.98;169.60;;;;;;;14.48;24.04;93843.00;5054663;28;20048;-61
2022/03/11 07:41:26;;;;;;;207.73;165.93;;;;;;;14.50;23.82;93849.47;5065245;28;20075;-61
2022/03/11 07:43:52;;;;;;;211.52;171.57;;;;;;;14.46;24.19;93856.16;5060741;28;20654;-62
2022/03/11 07:46:18;;;;;;;217.18;173.75;;;;;;;14.43;23.80;93854.31;5056383;28;20102;-61
2022/03/11 07:48:44;;;;;;;210.88;167.13;;;;;;;14.44;23.84;93853.88;5055861;28;20055;-61
2022/03/11 07:51:10;;;;;;;211.48;170.15;;;;;;;14.47;23.90;93853.03;5058200;28;20075;-61
2022/03/11 07:53:36;;;;;;;215.43;173.05;;;;;;;14.44;23.86;93856.59;5056677;28;20071;-61
2022/03/11 07:56:07;;;;;;;208.00;166.38;;;;;;;14.43;23.90;93846.25;5065473;28;20049;-60
2022/03/11 07:58:33;;;;;;;210.60;167.38;;;;;;;14.41;23.88;93848.59;5066149;28;20126;-61
2022/03/11 08:00:58;;;;;;;215.30;172.02;;;;;;;14.44;24.01;93855.81;5064892;28;20036;-61
2022/03/11 08:03:24;;;;;;;216.32;172.23;;;;;;;14.45;23.79;93855.41;5063375;28;20944;-60
2022/03/11 08:05:50;;;;;;;211.13;169.50;;;;;;;14.43;24.00;93851.63;5068112;28;20253;-61
2022/03/11 08:08:15;;;;;;;216.60;172.05;;;;;;;14.41;24.08;93852.06;5065284;28;20056;-61
2022/03/11 08:10:41;;;;;;;232.73;182.93;;;;;;;14.40;23.84;93850.53;5055112;28;20053;-61
2022/03/11 08:13:07;;;;;;;211.93;170.70;;;;;;;14.40;24.10;93850.53;5059481;28;20047;-62
2022/03/11 08:15:35;;;;;;;211.13;172.00;;;;;;;14.39;24.15;93848.28;5060813;28;20086;-61
2022/03/11 08:18:02;;;;;;;209.65;168.02;;;;;;;14.33;24.10;93850.75;5055968;28;20114;-61
2022/03/11 08:20:28;;;;;;;211.50;168.10;;;;;;;14.32;24.04;93851.94;5063392;28;20056;-61
2022/03/11 08:22:54;;;;;;;219.73;172.45;;;;;;;14.36;23.97;93841.06;5067230;28;20049;-60
2022/03/11 08:25:26;;;;;;;211.10;168.63;;;;;;;14.27;24.17;93846.38;5065574;28;20082;-60
2022/03/11 08:27:53;;;;;;;224.65;175.93;;;;;;;14.27;24.20;93846.38;5071565;28;20100;-59
2022/03/11 08:30:19;;;;;;;215.20;171.02;;;;;;;14.26;24.10;93842.19;5060832;28;20048;-62
2022/03/11 08:32:45;;;;;;;219.20;173.02;;;;;;;14.29;24.07;93850.16;5065360;28;20047;-61
2022/03/11 08:35:11;;;;;;;216.70;173.98;;;;;;;14.37;24.10;93848.72;5067350;28;20062;-61
2022/03/11 08:37:37;;;;;;;215.88;168.13;;;;;;;14.42;24.17;93848.19;5055907;28;20044;-61
2022/03/11 08:40:05;;;;;;;210.85;169.80;;;;;;;14.34;24.26;93838.06;5063192;28;20048;-62
2022/03/11 08:42:32;;;;;;;212.20;171.95;;;;;;;14.29;24.08;93842.06;5063478;28;20406;-61
2022/03/11 08:45:00;;;;;;;213.52;170.93;;;;;;;14.29;24.26;93839.38;5064318;28;20053;-62
2022/03/11 08:47:26;;;;;;;217.20;176.48;;;;;;;14.33;24.11;93834.63;5062612;28;20064;-61
2022/03/11 08:49:52;;;;;;;209.05;167.40;;;;;;;14.32;24.19;93841.19;5057916;28;20519;-61
2022/03/11 08:52:19;;;;;;;207.27;162.38;;;;;;;14.34;24.11;93841.50;5059179;28;20139;-61
2022/03/11 08:54:45;;;;;;;212.70;171.55;;;;;;;14.28;24.08;93845.19;5060985;28;20048;-61
2022/03/11 08:57:11;;;;;;;217.63;175.40;;;;;;;14.32;24.01;93838.50;5067139;28;20826;-61
2022/03/11 08:59:36;;;;;;;213.98;170.18;;;;;;;14.37;24.05;93835.25;5063973;28;20051;-61
2022/03/11 09:02:03;;;;;;;214.20;172.98;;;;;;;14.40;24.12;93826.31;5064590;28;20059;-62
2022/03/11 09:04:29;;;;;;;229.23;183.73;;;;;;;14.43;23.84;93830.88;5070171;28;20045;-60
2022/03/11 09:06:54;;;;;;;218.05;171.20;;;;;;;14.44;24.17;93816.22;5050809;28;20049;-61
2022/03/11 09:09:19;;;;;;;212.60;166.68;;;;;;;14.45;24.08;93822.34;5057495;28;20123;-62
2022/03/11 09:11:45;;;;;;;209.65;167.02;;;;;;;14.44;23.96;93823.53;5056274;28;20123;-62
2022/03/11 09:14:11;;;;;;;216.57;166.90;;;;;;;14.43;23.92;93816.66;5052777;28;20516;-62
2022/03/11 09:16:37;;;;;;;213.35;169.52;;;;;;;14.46;24.02;93818.47;5062277;28;20117;-62
2022/03/11 09:19:03;;;;;;;209.30;168.95;;;;;;;14.46;24.04;93818.47;5067944;28;20040;-61
2022/03/11 09:21:29;;;;;;;220.68;175.30;;;;;;;14.47;24.19;93819.97;5053638;28;20046;-62
2022/03/11 09:23:55;;;;;;;216.73;174.43;;;;;;;14.42;24.03;93820.53;5061716;28;20052;-61
2022/03/11 09:26:21;;;;;;;209.13;168.70;;;;;;;14.44;24.15;93813.53;5048644;28;20247;-62
2022/03/11 09:28:46;;;;;;;205.05;166.70;;;;;;;14.46;24.09;93816.53;5047941;28;20041;-62
2022/03/11 09:31:13;;;;;;;215.13;172.27;;;;;;;14.46;24.13;93811.16;5056091;28;20048;-62
2022/03/11 09:33:40;;;;;;;211.10;169.77;;;;;;;14.46;24.40;93819.22;5064425;28;20044;-63
2022/03/11 09:36:06;;;;;;;211.88;166.27;;;;;;;14.46;23.97;93819.22;5030702;28;20237;-61
2022/03/11 09:38:33;;;;;;;211.30;167.23;;;;;;;14.45;24.11;93819.66;5067527;28;20059;-63
2022/03/11 09:41:02;;;;;;;210.38;166.55;;;;;;;14.38;24.06;93819.88;5061086;28;20406;-62
2022/03/11 09:43:27;;;;;;;210.25;170.02;;;;;;;14.29;24.39;93819.81;5051145;28;20040;-61
2022/03/11 09:45:53;;;;;;;209.57;161.48;;;;;;;14.16;24.49;93817.88;5055268;28;20124;-62
2022/03/11 09:48:20;;;;;;;211.52;170.00;;;;;;;14.24;24.60;93817.66;5060734;28;20094;-62
2022/03/11 09:50:46;;;;;;;232.43;181.77;;;;;;;14.27;24.49;93816.81;5059532;28;20079;-62
2022/03/11 09:53:12;;;;;;;211.35;166.73;;;;;;;14.27;24.52;93814.09;5066101;28;20074;-62
2022/03/11 09:55:39;;;;;;;214.00;169.38;;;;;;;14.32;24.28;93808.16;5079961;28;20105;-62
2022/03/11 09:58:05;;;;;;;211.45;168.43;;;;;;;14.38;24.32;93809.84;5057971;28;20048;-62
2022/03/11 10:00:30;;;;;;;214.52;169.23;;;;;;;14.31;24.40;93809.34;5056794;28;20060;-62
2022/03/11 10:02:56;;;;;;;211.98;169.35;;;;;;;14.31;24.47;93807.41;5068122;28;20052;-62
2022/03/11 10:05:22;;;;;;;212.07;163.52;;;;;;;14.26;24.36;93815.28;5054921;28;20087;-61
2022/03/11 10:08:00;;;;;;;228.07;177.65;;;;;;;14.24;24.47;93815.72;5068251;28;20058;-61
2022/03/11 10:10:25;;;;;;;215.45;164.10;;;;;;;14.24;24.49;93809.59;5058237;28;20053;-63
2022/03/11 10:12:53;;;;;;;219.27;169.60;;;;;;;14.17;24.63;93805.19;5069025;28;20538;-62
2022/03/11 10:15:27;;;;;;;214.38;169.38;;;;;;;14.09;24.65;93809.28;5050610;28;20532;-61
2022/03/11 10:17:53;;;;;;;216.00;169.35;;;;;;;14.10;24.63;93808.13;5040466;28;20404;-62
2022/03/11 10:20:19;;;;;;;217.57;170.98;;;;;;;14.08;24.32;93811.22;5063211;28;20452;-62
2022/03/11 10:22:45;;;;;;;213.15;169.38;;;;;;;14.08;24.69;93815.84;5064653;28;20123;-62
2022/03/11 10:25:18;;;;;;;213.82;167.20;;;;;;;14.12;24.38;93813.81;5059407;28;20067;-62
2022/03/11 10:28:06;;;;;;;214.07;163.43;;;;;;;14.13;24.33;93812.63;5060627;28;20048;-62
2022/03/11 10:30:34;;;;;;;214.27;164.68;;;;;;;14.10;24.20;93818.88;5065494;28;20485;-62
2022/03/11 10:33:02;;;;;;;210.65;163.48;;;;;;;14.21;24.05;93813.16;5059008;28;20049;-63
2022/03/11 10:35:40;;;;;;;225.50;174.25;;;;;;;14.12;24.47;93805.75;5057518;28;20129;-62
2022/03/11 10:38:12;;;;;;;215.18;163.45;;;;;;;14.12;24.35;93811.13;5070033;28;20040;-62
2022/03/11 10:40:52;;;;;;;225.93;174.25;;;;;;;14.22;24.24;93807.34;5059861;28;20049;-62
2022/03/11 10:43:23;;;;;;;217.02;167.85;;;;;;;14.27;24.39;93811.41;5064073;28;20067;-62
2022/03/11 10:45:55;;;;;;;207.10;161.38;;;;;;;14.12;24.57;93811.88;5055164;28;20555;-62
2022/03/11 10:48:47;;;;;;;216.05;167.60;;;;;;;14.03;24.73;93806.41;5053764;28;20052;-61
2022/03/11 10:51:24;;;;;;;;;;;;;;;14.01;24.76;93813.38;5054817;28;20089;-62
2022/03/11 10:53:50;;;;;;;218.02;164.52;;;;;;;14.02;24.89;93812.22;5051086;28;19928;-61
2022/03/11 10:56:34;;;;;;;215.18;165.18;;;;;;;14.00;25.13;93804.56;5058787;28;20037;-61
2022/03/11 10:59:17;;;;;;;218.23;168.38;;;;;;;13.98;24.76;93800.81;5054390;28;20442;-61
2022/03/11 11:01:44;;;;;;;225.20;170.65;;;;;;;13.94;24.87;93800.16;5048631;28;20492;-60
2022/03/11 11:04:12;;;;;;;211.27;165.23;;;;;;;13.95;25.05;93799.00;5068763;28;20041;-62
2022/03/11 11:06:38;;;;;;;238.20;186.43;;;;;;;13.94;24.76;93798.22;5054914;28;20815;-61
2022/03/11 11:09:05;;;;;;;212.57;163.82;;;;;;;13.94;25.06;93795.53;5053107;28;20044;-61
2022/03/11 11:11:32;;;;;;;222.68;175.02;;;;;;;13.94;24.92;93794.78;5054477;28;20147;-61
2022/03/11 11:14:07;;;;;;;220.98;170.98;;;;;;;13.90;25.22;93794.16;5069481;28;20036;-61
2022/03/11 11:16:41;;;;;;;214.07;167.10;;;;;;;13.87;25.13;93787.69;5055345;28;20095;-61
2022/03/11 11:19:17;;;;;;;214.77;165.35;;;;;;;13.83;25.07;93785.13;5052510;28;20099;-61